Time;durP1;ratioP1;P1;durP2;ratioP2;P2;SDS_P1;SDS_P2;PMS_P1;PMS_P2;Temp;Humidity;BMP_temperature;BMP_pressure;BME280_temperature;BME280_humidity;BME280_pressure;Samples;Min_cycle;Max_cycle;Signal;HPM_P1;HPM_P2
2022/01/30 00:01:54;;;;;;;0.40;0.40;;;;;;;9.33;100.00;101110.63;5028221;28;20478;-54
2022/01/30 00:04:21;;;;;;;0.30;0.20;;;;;;;9.16;100.00;101113.44;5044115;28;20489;-54
2022/01/30 00:06:48;;;;;;;0.30;0.20;;;;;;;9.22;100.00;101120.47;5039030;28;20939;-54
2022/01/30 00:09:20;;;;;;;0.30;0.20;;;;;;;9.17;100.00;101126.66;5045966;28;20550;-54
2022/01/30 00:12:00;;;;;;;0.30;0.20;;;;;;;8.97;100.00;101123.34;5039141;28;20447;-54
2022/01/30 00:14:31;;;;;;;0.40;0.40;;;;;;;8.97;100.00;101128.63;5020772;28;20488;-54
2022/01/30 00:17:22;;;;;;;0.30;0.20;;;;;;;9.11;100.00;101133.81;5047083;28;20537;-54
2022/01/30 00:19:58;;;;;;;0.30;0.20;;;;;;;9.20;100.00;101131.97;5038870;28;20491;-54
2022/01/30 00:25:05;;;;;;;0.30;0.20;;;;;;;9.34;100.00;101145.09;5045940;28;20483;-55
2022/01/30 00:27:44;;;;;;;0.30;0.20;;;;;;;9.20;100.00;101150.53;5045442;28;20450;-54
2022/01/30 00:30:14;;;;;;;0.27;0.20;;;;;;;9.20;100.00;101141.72;5041995;28;20470;-54
2022/01/30 00:32:41;;;;;;;0.30;0.20;;;;;;;9.29;100.00;101143.38;5039018;28;20538;-54
2022/01/30 00:35:28;;;;;;;0.30;0.17;;;;;;;9.28;100.00;101131.00;5039208;28;20451;-54
2022/01/30 00:37:55;;;;;;;0.30;0.20;;;;;;;9.30;100.00;101139.81;5025889;28;20983;-54
2022/01/30 00:40:33;;;;;;;0.30;0.20;;;;;;;9.27;100.00;101122.16;5036408;28;20497;-54
2022/01/30 00:43:00;;;;;;;0.30;0.20;;;;;;;9.32;100.00;101122.09;5041276;28;20481;-54
2022/01/30 00:45:27;;;;;;;0.30;0.20;;;;;;;9.29;100.00;101124.81;5037666;28;20830;-54
2022/01/30 00:47:54;;;;;;;0.30;0.20;;;;;;;9.35;100.00;101115.03;5042026;28;20855;-54
2022/01/30 00:50:21;;;;;;;0.30;0.20;;;;;;;9.29;100.00;101112.41;5038511;28;20455;-54
2022/01/30 00:52:53;;;;;;;0.30;0.20;;;;;;;9.29;100.00;101115.06;5046517;28;20443;-54
2022/01/30 00:55:21;;;;;;;0.30;0.20;;;;;;;9.27;100.00;101119.50;5038429;28;20605;-53
2022/01/30 00:57:47;;;;;;;0.30;0.20;;;;;;;9.39;100.00;101137.97;5041398;28;20538;-54
2022/01/30 01:00:15;;;;;;;0.30;0.20;;;;;;;9.28;100.00;101125.69;5045638;28;20547;-54
2022/01/30 01:02:43;;;;;;;0.30;0.20;;;;;;;9.54;100.00;101144.88;5043462;28;20474;-54
2022/01/30 01:05:11;;;;;;;0.30;0.20;;;;;;;9.67;100.00;101154.47;5038234;28;20450;-54
2022/01/30 01:07:43;;;;;;;0.30;0.20;;;;;;;9.69;100.00;101139.41;5039937;28;20542;-54
2022/01/30 01:10:25;;;;;;;19.93;1.07;;;;;;;9.55;100.00;101153.72;5045531;28;20527;-54
2022/01/30 01:23:21;;;;;;;0.30;0.20;;;;;;;9.36;100.00;101163.66;5049468;28;20490;-54
2022/01/30 01:23:52;;;;;;;0.30;0.20;;;;;;;9.36;100.00;101161.88;5047648;28;20527;-54
2022/01/30 01:26:20;;;;;;;0.30;0.20;;;;;;;9.25;100.00;101157.56;5042648;28;20534;-54
2022/01/30 01:28:47;;;;;;;0.30;0.20;;;;;;;9.23;100.00;101152.28;5043598;28;20471;-54
2022/01/30 01:31:14;;;;;;;0.30;0.20;;;;;;;9.17;100.00;101152.31;5053549;28;20576;-54
2022/01/30 01:36:12;;;;;;;0.30;0.20;;;;;;;9.19;100.00;101140.81;5029423;28;20504;-53
2022/01/30 01:38:39;;;;;;;0.30;0.20;;;;;;;9.18;100.00;101139.06;5041672;28;20487;-54
2022/01/30 01:41:05;;;;;;;0.30;0.20;;;;;;;9.21;100.00;101138.16;5048115;28;20538;-54
2022/01/30 01:43:32;;;;;;;0.30;0.20;;;;;;;9.18;100.00;101144.38;5048490;28;20478;-54
2022/01/30 01:46:00;;;;;;;0.30;0.20;;;;;;;9.20;100.00;101144.34;5024645;28;20530;-54
2022/01/30 01:48:32;;;;;;;0.30;0.20;;;;;;;9.20;100.00;101147.88;5048495;28;20581;-54
2022/01/30 01:51:13;;;;;;;0.30;0.20;;;;;;;9.20;100.00;101158.50;5043163;28;20951;-54
2022/01/30 01:53:40;;;;;;;0.30;0.20;;;;;;;9.20;99.35;101154.97;5048336;28;21017;-54
2022/01/30 01:56:08;;;;;;;0.30;0.20;;;;;;;9.26;98.09;101164.63;5045677;28;20916;-54
2022/01/30 01:58:34;;;;;;;0.30;0.20;;;;;;;9.21;99.76;101159.38;5038907;28;20506;-54
2022/01/30 02:01:02;;;;;;;0.30;0.20;;;;;;;9.23;100.00;101156.72;5045827;28;20522;-54
2022/01/30 02:03:29;;;;;;;0.30;0.20;;;;;;;9.10;100.00;101150.63;5039055;28;20823;-54
2022/01/30 02:06:00;;;;;;;0.30;0.20;;;;;;;9.07;99.70;101140.94;5046186;28;20837;-54
2022/01/30 02:11:14;;;;;;;0.30;0.20;;;;;;;9.03;100.00;101146.25;5042480;28;20443;-54
2022/01/30 02:14:17;;;;;;;0.30;0.20;;;;;;;8.94;100.00;101144.59;5034445;28;20542;-54
2022/01/30 02:25:18;;;;;;;0.30;0.20;;;;;;;9.00;97.76;101152.47;5030854;28;20990;-54
2022/01/30 02:27:46;;;;;;;0.30;0.20;;;;;;;9.00;96.45;101151.59;5039763;28;20447;-54
2022/01/30 02:30:20;;;;;;;0.30;0.20;;;;;;;8.95;96.22;101154.28;5045685;28;20518;-54
2022/01/30 02:32:48;;;;;;;0.30;0.20;;;;;;;8.82;95.83;101155.28;5040497;28;20520;-54
2022/01/30 02:35:15;;;;;;;0.30;0.20;;;;;;;8.87;95.61;101153.47;5042018;28;20518;-54
2022/01/30 02:37:42;;;;;;;0.30;0.20;;;;;;;8.79;96.94;101153.53;5047757;28;20555;-54
2022/01/30 02:40:11;;;;;;;0.30;0.20;;;;;;;8.81;96.97;101158.81;5046806;28;20451;-54
2022/01/30 02:42:43;;;;;;;0.50;0.50;;;;;;;8.83;97.71;101162.34;5040637;28;20497;-54
2022/01/30 02:45:12;;;;;;;0.30;0.20;;;;;;;8.84;97.62;101153.50;5040728;28;20472;-54
2022/01/30 02:47:53;;;;;;;0.30;0.20;;;;;;;8.88;97.18;101149.91;5042287;28;20505;-54
2022/01/30 02:50:33;;;;;;;0.30;0.20;;;;;;;8.91;97.81;101157.88;5040984;28;20455;-54
2022/01/30 02:53:03;;;;;;;0.30;0.20;;;;;;;8.84;97.77;101158.78;5048197;28;20980;-53
2022/01/30 02:55:30;;;;;;;0.30;0.20;;;;;;;8.92;97.88;101156.09;5040799;28;20573;-53
2022/01/30 02:57:56;;;;;;;0.30;0.20;;;;;;;8.89;97.88;101165.81;5042185;28;20521;-53
2022/01/30 03:00:23;;;;;;;0.30;0.20;;;;;;;8.88;98.26;101181.72;5047027;28;20479;-53
2022/01/30 03:02:50;;;;;;;0.30;0.20;;;;;;;8.84;96.71;101180.88;5045789;28;20485;-53
2022/01/30 03:05:20;;;;;;;0.30;0.20;;;;;;;8.74;96.00;101186.25;5040293;28;20447;-53
2022/01/30 03:07:47;;;;;;;0.30;0.20;;;;;;;8.74;96.94;101191.53;5041128;28;20494;-53
2022/01/30 03:10:14;;;;;;;0.30;0.20;;;;;;;8.59;95.59;101195.19;5049251;28;20447;-53
2022/01/30 03:12:41;;;;;;;0.30;0.20;;;;;;;8.60;95.14;101196.94;5040555;28;20447;-53
2022/01/30 03:15:08;;;;;;;0.30;0.20;;;;;;;8.55;95.41;101210.22;5027033;28;20573;-53
2022/01/30 03:17:35;;;;;;;0.30;0.17;;;;;;;8.52;95.47;101212.91;5048608;28;20504;-54
2022/01/30 03:20:03;;;;;;;0.30;0.10;;;;;;;8.63;94.70;101214.56;5027139;28;20494;-53
2022/01/30 03:22:30;;;;;;;0.30;0.20;;;;;;;8.58;95.52;101222.56;5040215;28;20471;-53
2022/01/30 03:24:57;;;;;;;0.30;0.13;;;;;;;8.71;95.70;101221.59;5051099;28;20537;-53
2022/01/30 03:27:24;;;;;;;0.30;0.20;;;;;;;8.65;95.55;101226.09;5039784;28;21045;-53
2022/01/30 03:30:03;;;;;;;0.30;0.20;;;;;;;8.88;95.15;101232.09;5045661;28;20554;-53
2022/01/30 03:32:30;;;;;;;0.30;0.20;;;;;;;8.76;95.56;101242.78;5046782;28;20997;-53
2022/01/30 03:34:57;;;;;;;0.30;0.20;;;;;;;8.84;96.30;101240.97;5042329;28;20913;-53
2022/01/30 03:37:26;;;;;;;0.27;0.20;;;;;;;8.84;95.72;101249.81;5039491;28;20458;-53
2022/01/30 03:39:53;;;;;;;0.30;0.20;;;;;;;8.66;90.60;101259.66;5043172;28;20514;-53
2022/01/30 03:42:21;;;;;;;0.30;0.20;;;;;;;8.71;89.54;101263.13;5041258;28;20529;-53
2022/01/30 03:44:48;;;;;;;0.30;0.20;;;;;;;8.55;88.77;101257.91;5042037;28;20479;-53
2022/01/30 03:47:14;;;;;;;0.30;0.20;;;;;;;8.47;89.46;101265.00;5039314;28;20489;-53
2022/01/30 03:49:41;;;;;;;0.30;0.20;;;;;;;8.33;89.36;101272.97;5041938;28;20555;-53
2022/01/30 03:52:08;;;;;;;0.30;0.10;;;;;;;8.33;89.64;101272.09;5045005;28;20463;-53
2022/01/30 03:54:35;;;;;;;0.30;0.20;;;;;;;8.31;89.42;101271.22;5041623;28;20491;-53
2022/01/30 03:57:03;;;;;;;0.30;0.20;;;;;;;8.37;88.09;101283.63;5044744;28;20489;-53
2022/01/30 03:59:29;;;;;;;0.30;0.20;;;;;;;8.43;88.49;101281.81;5041246;28;20510;-54
2022/01/30 04:01:56;;;;;;;0.30;0.20;;;;;;;8.26;89.62;101279.19;5046274;28;20501;-54
2022/01/30 04:04:23;;;;;;;0.30;0.20;;;;;;;8.39;90.65;101285.38;5040863;28;20458;-54
2022/01/30 04:06:50;;;;;;;0.30;0.20;;;;;;;8.21;87.46;101291.56;5045929;28;20534;-54
2022/01/30 04:09:17;;;;;;;0.30;0.17;;;;;;;8.13;84.64;101288.06;5044370;28;20509;-54
2022/01/30 04:11:46;;;;;;;0.30;0.20;;;;;;;8.08;85.37;101278.34;5038999;28;20486;-54
2022/01/30 04:14:13;;;;;;;0.30;0.20;;;;;;;8.02;83.60;101287.19;5040147;28;20910;-53
2022/01/30 04:16:40;;;;;;;0.30;0.20;;;;;;;7.96;83.54;101288.09;5046781;28;20518;-54
2022/01/30 04:19:07;;;;;;;0.30;0.20;;;;;;;8.13;82.37;101289.81;5039411;28;20504;-54
2022/01/30 04:21:34;;;;;;;0.27;0.20;;;;;;;8.15;84.95;101294.22;5038915;28;20474;-54
2022/01/30 04:24:00;;;;;;;0.30;0.20;;;;;;;8.07;82.87;101296.00;5039609;28;21043;-54
2022/01/30 04:26:27;;;;;;;0.30;0.20;;;;;;;8.07;82.11;101303.94;5045185;28;20479;-53
2022/01/30 04:28:57;;;;;;;0.30;0.20;;;;;;;8.04;82.55;101296.00;5045589;28;20474;-54
2022/01/30 04:31:24;;;;;;;0.30;0.20;;;;;;;8.07;84.24;101305.72;5035274;28;20535;-54
2022/01/30 04:33:51;;;;;;;0.30;0.17;;;;;;;7.99;83.98;101311.91;5045797;28;20451;-54
2022/01/30 04:36:24;;;;;;;0.30;0.20;;;;;;;8.05;84.84;101315.44;5039566;28;20573;-54
2022/01/30 04:39:01;;;;;;;0.30;0.20;;;;;;;8.02;85.00;101322.50;5039456;28;20515;-54
2022/01/30 04:41:53;;;;;;;0.30;0.20;;;;;;;7.95;84.71;101327.81;5042291;28;20475;-54
2022/01/30 04:58:11;;;;;;;0.30;0.20;;;;;;;7.97;85.90;101340.16;5039223;28;20474;-54
2022/01/30 05:03:36;;;;;;;0.30;0.20;;;;;;;7.72;85.05;101341.94;5038646;28;20454;-54
2022/01/30 05:06:07;;;;;;;0.30;0.20;;;;;;;7.71;86.33;101339.28;5039104;28;20527;-53
2022/01/30 05:08:35;;;;;;;0.30;0.20;;;;;;;7.65;86.85;101334.88;5026867;28;20557;-53
2022/01/30 05:11:05;;;;;;;0.30;0.20;;;;;;;7.61;86.85;101330.47;5038015;28;20897;-54
2022/01/30 05:13:34;;;;;;;0.30;0.20;;;;;;;7.54;86.46;101339.28;5043564;28;20479;-54
2022/01/30 05:16:04;;;;;;;0.30;0.20;;;;;;;7.59;86.33;101340.16;5041959;28;21016;-54
2022/01/30 05:18:31;;;;;;;0.30;0.20;;;;;;;7.68;86.17;101342.81;5041019;28;20597;-53
2022/01/30 05:20:58;;;;;;;0.30;0.20;;;;;;;7.58;85.67;101338.41;5037247;28;20452;-54
2022/01/30 05:23:25;;;;;;;0.30;0.20;;;;;;;7.49;83.79;101342.78;5041691;28;20485;-54
2022/01/30 05:25:53;;;;;;;0.30;0.20;;;;;;;7.53;83.56;101349.84;5038250;28;20535;-54
2022/01/30 05:28:24;;;;;;;0.30;0.20;;;;;;;7.39;84.31;101361.28;5041789;28;20563;-53
2022/01/30 05:30:51;;;;;;;0.27;0.20;;;;;;;7.35;84.13;101362.16;5045343;28;20444;-54
2022/01/30 05:33:18;;;;;;;0.30;0.20;;;;;;;7.30;84.85;101365.69;5042423;28;21001;-53
2022/01/30 05:35:45;;;;;;;0.30;0.20;;;;;;;7.31;84.80;101364.81;5038009;28;20567;-54
2022/01/30 05:38:13;;;;;;;0.30;0.20;;;;;;;7.16;85.91;101368.31;5040940;28;20901;-53
2022/01/30 05:40:40;;;;;;;0.30;0.20;;;;;;;7.30;83.53;101369.22;5045029;28;21000;-54
2022/01/30 05:43:07;;;;;;;0.20;0.20;;;;;;;7.23;84.26;101371.84;5032978;28;20486;-54
2022/01/30 05:45:38;;;;;;;0.30;0.20;;;;;;;7.27;83.95;101385.09;5034603;28;20522;-53
2022/01/30 05:48:16;;;;;;;0.30;0.20;;;;;;;7.34;83.62;101384.22;5043109;28;20475;-53
2022/01/30 05:50:43;;;;;;;0.20;0.20;;;;;;;7.23;83.35;101391.22;5038011;28;20477;-53
2022/01/30 05:53:11;;;;;;;0.30;0.20;;;;;;;7.20;83.31;101388.59;5034848;28;20539;-54
2022/01/30 05:55:38;;;;;;;0.30;0.20;;;;;;;7.32;83.27;101403.59;5045152;28;20544;-53
2022/01/30 05:58:04;;;;;;;0.30;0.20;;;;;;;7.17;83.31;101398.28;5045266;28;20498;-53
2022/01/30 06:00:31;;;;;;;0.30;0.20;;;;;;;7.28;83.24;101400.09;5053038;28;21074;-53
2022/01/30 06:03:01;;;;;;;0.20;0.20;;;;;;;7.10;83.40;101400.00;5041554;28;20454;-54
2022/01/30 06:05:28;;;;;;;0.30;0.20;;;;;;;7.10;83.67;101395.59;5047901;28;20892;-54
2022/01/30 06:07:56;;;;;;;0.20;0.20;;;;;;;7.19;83.32;101399.16;5047842;28;20540;-54
2022/01/30 06:10:26;;;;;;;0.30;0.10;;;;;;;7.13;83.91;101407.97;5042946;28;20542;-53
2022/01/30 06:12:53;;;;;;;0.20;0.20;;;;;;;7.17;84.15;101401.81;5051087;28;20486;-54
2022/01/30 06:15:20;;;;;;;0.30;0.20;;;;;;;7.13;83.73;101407.97;5043246;28;21002;-54
2022/01/30 06:17:47;;;;;;;0.30;0.20;;;;;;;6.95;84.07;101406.13;5043371;28;21160;-54
2022/01/30 06:20:14;;;;;;;0.20;0.20;;;;;;;6.96;84.20;101405.25;5039066;28;20456;-53
2022/01/30 06:22:41;;;;;;;0.20;0.20;;;;;;;7.03;82.74;101406.16;5048338;28;20530;-54
2022/01/30 06:25:13;;;;;;;0.20;0.10;;;;;;;7.01;83.79;101413.22;5043701;28;20524;-54
2022/01/30 06:27:40;;;;;;;0.23;0.20;;;;;;;7.08;84.05;101415.84;5040892;28;20451;-54
2022/01/30 06:30:08;;;;;;;0.20;0.20;;;;;;;7.04;83.78;101421.13;5045457;28;20879;-54
2022/01/30 06:32:35;;;;;;;0.20;0.20;;;;;;;7.01;83.26;101424.66;5047775;28;20502;-53
2022/01/30 06:35:04;;;;;;;0.20;0.20;;;;;;;7.04;83.91;101429.06;5036579;28;20568;-54
2022/01/30 06:37:32;;;;;;;0.20;0.20;;;;;;;7.10;83.77;101431.72;5044843;28;20498;-53
2022/01/30 06:39:58;;;;;;;0.30;0.10;;;;;;;6.94;84.83;101427.25;5045040;28;20842;-53
2022/01/30 06:42:25;;;;;;;0.20;0.20;;;;;;;6.93;85.03;101428.13;5036384;28;20537;-53
2022/01/30 06:44:52;;;;;;;0.20;0.20;;;;;;;6.97;85.89;101429.91;5051664;28;20490;-53
2022/01/30 06:47:18;;;;;;;0.23;0.20;;;;;;;6.90;87.07;101418.44;5036852;28;20486;-54
2022/01/30 06:49:45;;;;;;;0.20;0.20;;;;;;;6.88;87.10;101416.66;5042864;28;20525;-53
2022/01/30 06:52:15;;;;;;;0.20;0.10;;;;;;;6.84;86.44;101427.19;5039974;28;20986;-53
2022/01/30 06:54:41;;;;;;;0.30;0.20;;;;;;;6.77;87.63;101420.13;5033228;28;20534;-53
2022/01/30 06:57:11;;;;;;;0.20;0.20;;;;;;;6.62;87.48;101420.06;5047285;28;20486;-53
2022/01/30 06:59:40;;;;;;;0.20;0.10;;;;;;;6.78;86.37;101411.34;5037647;28;20480;-54
2022/01/30 07:02:09;;;;;;;0.30;0.10;;;;;;;6.80;86.39;101413.97;5039537;28;20549;-53
2022/01/30 07:04:36;;;;;;;0.20;0.20;;;;;;;6.79;86.51;101415.75;5050909;28;20445;-54
2022/01/30 07:07:04;;;;;;;0.20;0.20;;;;;;;6.84;86.67;101426.31;5030540;28;20432;-53
2022/01/30 07:09:32;;;;;;;0.20;0.20;;;;;;;6.76;87.08;101428.94;5027878;28;20839;-53
2022/01/30 07:11:58;;;;;;;0.20;0.20;;;;;;;6.71;86.68;101425.38;5050855;28;21003;-53
2022/01/30 07:14:25;;;;;;;0.30;0.20;;;;;;;6.75;86.88;101429.81;5039964;28;20510;-53
2022/01/30 07:16:54;;;;;;;0.20;0.10;;;;;;;6.79;86.30;101433.34;5048887;28;20525;-53
2022/01/30 07:19:20;;;;;;;0.20;0.20;;;;;;;6.80;86.89;101424.53;5039341;28;20551;-53
2022/01/30 07:21:47;;;;;;;0.20;0.20;;;;;;;6.85;87.13;101436.00;5035143;28;21218;-53
2022/01/30 07:24:14;;;;;;;0.20;0.20;;;;;;;6.76;87.81;101446.56;5038060;28;21019;-54
2022/01/30 07:26:41;;;;;;;0.20;0.10;;;;;;;6.78;87.33;101436.88;5046491;28;20483;-54
2022/01/30 07:29:08;;;;;;;0.20;0.20;;;;;;;6.80;87.57;101449.22;5050122;28;20483;-54
2022/01/30 07:31:35;;;;;;;0.30;0.10;;;;;;;6.87;87.26;101452.78;5032430;28;20483;-54
2022/01/30 07:34:03;;;;;;;0.20;0.20;;;;;;;6.87;88.39;101454.53;5037795;28;20980;-54
2022/01/30 07:36:35;;;;;;;0.20;0.20;;;;;;;6.90;88.03;101466.00;5051554;28;20529;-54
2022/01/30 07:39:05;;;;;;;0.20;0.20;;;;;;;6.89;87.75;101464.25;5039046;28;20522;-54
2022/01/30 07:41:33;;;;;;;0.20;0.10;;;;;;;6.95;88.02;101468.66;5041840;28;20482;-54
2022/01/30 07:44:01;;;;;;;0.20;0.20;;;;;;;6.92;87.58;101466.91;5048258;28;20455;-54
2022/01/30 07:46:28;;;;;;;0.20;0.10;;;;;;;6.94;87.07;101467.78;5042829;28;20448;-54
2022/01/30 07:48:56;;;;;;;0.20;0.20;;;;;;;6.98;87.46;101468.69;5045725;28;21008;-54
2022/01/30 07:51:23;;;;;;;0.20;0.20;;;;;;;6.88;87.17;101475.69;5031069;28;20542;-54
2022/01/30 07:53:49;;;;;;;0.20;0.20;;;;;;;6.83;87.13;101482.69;5036328;28;20898;-54
2022/01/30 07:56:16;;;;;;;0.20;0.20;;;;;;;6.92;87.06;101480.13;5033602;28;20541;-54
2022/01/30 07:58:43;;;;;;;0.30;0.20;;;;;;;6.81;88.00;101481.81;5045540;28;20579;-54
2022/01/30 08:01:18;;;;;;;0.20;0.20;;;;;;;6.90;87.42;101495.09;5027149;28;20443;-54
2022/01/30 08:03:44;;;;;;;0.20;0.20;;;;;;;6.93;87.01;101496.84;5047248;28;20448;-54
2022/01/30 08:06:11;;;;;;;0.30;0.20;;;;;;;7.08;87.01;101494.28;5033966;28;20456;-55
2022/01/30 08:08:38;;;;;;;0.20;0.20;;;;;;;7.16;87.10;101497.00;5032008;28;20498;-54
2022/01/30 08:11:07;;;;;;;0.20;0.10;;;;;;;7.26;86.45;101493.47;5035998;28;20540;-54
2022/01/30 08:13:33;;;;;;;0.30;0.17;;;;;;;7.21;86.75;101492.59;5038263;28;20461;-54
2022/01/30 08:16:00;;;;;;;0.20;0.20;;;;;;;7.15;85.35;101498.75;5041163;28;20921;-54
2022/01/30 08:18:27;;;;;;;0.20;0.13;;;;;;;7.11;86.09;101483.72;5049340;28;20490;-54
2022/01/30 08:20:54;;;;;;;0.30;0.20;;;;;;;7.20;85.47;101491.72;5037385;28;20563;-54
2022/01/30 08:23:23;;;;;;;0.20;0.20;;;;;;;7.26;86.04;101491.72;5039268;28;20543;-54
2022/01/30 08:25:50;;;;;;;0.20;0.20;;;;;;;7.16;86.96;101500.50;5045227;28;20530;-54
2022/01/30 08:28:24;;;;;;;0.20;0.10;;;;;;;7.25;86.41;101508.47;5041198;28;20471;-54
2022/01/30 08:30:53;;;;;;;0.20;0.20;;;;;;;7.23;86.75;101504.06;5036493;28;20944;-54
2022/01/30 08:33:20;;;;;;;0.20;0.20;;;;;;;7.19;87.30;101507.56;5040852;28;20832;-54
2022/01/30 08:35:48;;;;;;;0.30;0.20;;;;;;;7.20;86.85;101514.63;5037755;28;20860;-54
2022/01/30 08:38:17;;;;;;;0.20;0.20;;;;;;;7.18;87.11;101511.97;5043295;28;20565;-54
2022/01/30 08:40:48;;;;;;;0.20;0.13;;;;;;;7.25;86.49;101512.88;5044944;28;20526;-54
2022/01/30 08:43:15;;;;;;;0.30;0.17;;;;;;;7.17;87.32;101514.63;5037238;28;20546;-54
2022/01/30 08:45:42;;;;;;;0.20;0.10;;;;;;;7.30;87.71;101519.97;5034056;28;20483;-54
2022/01/30 08:48:09;;;;;;;0.20;0.10;;;;;;;7.24;86.83;101512.00;5036850;28;20546;-54
2022/01/30 08:50:36;;;;;;;0.20;0.17;;;;;;;7.31;87.65;101518.22;5035362;28;20482;-55
2022/01/30 08:53:02;;;;;;;0.20;0.10;;;;;;;7.27;88.50;101517.31;5038578;28;20531;-54
2022/01/30 08:55:29;;;;;;;0.20;0.10;;;;;;;7.26;87.73;101509.34;5046079;28;20570;-54
2022/01/30 08:57:58;;;;;;;0.20;0.20;;;;;;;7.28;87.75;101523.50;5033711;28;21011;-54
2022/01/30 09:00:28;;;;;;;0.20;0.20;;;;;;;7.37;87.08;101518.22;5033957;28;20459;-54
2022/01/30 09:02:57;;;;;;;0.20;0.20;;;;;;;7.39;87.38;101517.34;5041078;28;20490;-54
2022/01/30 09:05:24;;;;;;;0.20;0.10;;;;;;;7.49;87.71;101514.75;5041441;28;20460;-54
2022/01/30 09:07:51;;;;;;;0.20;0.10;;;;;;;7.46;87.30;101522.69;5039117;28;20488;-54
2022/01/30 09:10:17;;;;;;;0.20;0.10;;;;;;;7.42;87.24;101527.97;5033502;28;21140;-54
2022/01/30 09:12:44;;;;;;;0.20;0.10;;;;;;;7.48;86.68;101520.91;5045198;28;20451;-54
2022/01/30 09:15:13;;;;;;;0.30;0.10;;;;;;;7.48;86.17;101526.22;5039548;28;20479;-53
2022/01/30 09:17:44;;;;;;;0.30;0.20;;;;;;;7.61;84.59;101530.66;5047140;28;20439;-54
2022/01/30 09:20:13;;;;;;;0.20;0.20;;;;;;;7.61;85.04;101523.63;5040742;28;21009;-54
2022/01/30 09:22:41;;;;;;;0.20;0.20;;;;;;;7.70;85.03;101526.31;5038379;28;20949;-54
2022/01/30 09:25:07;;;;;;;0.20;0.10;;;;;;;7.81;85.03;101531.63;5042338;28;20531;-54
2022/01/30 09:27:34;;;;;;;0.20;0.20;;;;;;;7.79;83.35;101516.59;5044851;28;20475;-54
2022/01/30 09:30:02;;;;;;;0.30;0.30;;;;;;;7.93;84.15;101515.75;5041402;28;20479;-54
2022/01/30 09:32:29;;;;;;;0.20;0.10;;;;;;;7.96;81.46;101514.91;5039118;28;20493;-54
2022/01/30 09:34:56;;;;;;;0.20;0.20;;;;;;;7.92;82.21;101508.69;5045494;28;20451;-54
2022/01/30 09:37:23;;;;;;;0.20;0.20;;;;;;;7.81;82.97;101521.03;5048799;28;20488;-54
2022/01/30 09:39:50;;;;;;;0.20;0.20;;;;;;;7.73;83.31;101507.78;5045577;28;20848;-54
2022/01/30 09:42:17;;;;;;;0.30;0.20;;;;;;;7.70;84.12;101510.44;5041501;28;20512;-54
2022/01/30 09:44:44;;;;;;;0.20;0.20;;;;;;;7.76;83.73;101508.66;5054985;28;20808;-54
2022/01/30 09:47:13;;;;;;;0.20;0.10;;;;;;;7.69;82.40;101502.47;5043739;28;20534;-54
2022/01/30 09:49:43;;;;;;;0.20;0.20;;;;;;;8.12;79.93;101507.84;5044830;28;20471;-54
2022/01/30 09:52:10;;;;;;;0.20;0.10;;;;;;;7.89;81.12;101514.00;5047196;28;20486;-54
2022/01/30 09:54:36;;;;;;;0.20;0.20;;;;;;;7.75;81.98;101517.47;5044436;28;20538;-54
2022/01/30 09:57:04;;;;;;;0.20;0.10;;;;;;;7.86;82.50;101516.63;5049239;28;20569;-54
2022/01/30 09:59:30;;;;;;;0.20;0.20;;;;;;;8.01;80.80;101521.06;5046719;28;20477;-53
2022/01/30 10:02:07;;;;;;;0.20;0.20;;;;;;;7.96;81.73;101517.53;5041790;28;20483;-54
2022/01/30 10:04:36;;;;;;;0.20;0.20;;;;;;;7.90;82.22;101523.69;5041310;28;20932;-54
2022/01/30 10:07:10;;;;;;;0.30;0.20;;;;;;;7.89;82.77;101519.28;5048199;28;20539;-54
2022/01/30 10:09:43;;;;;;;0.20;0.20;;;;;;;7.89;83.13;101516.63;5036422;28;20470;-53
2022/01/30 10:12:23;;;;;;;0.23;0.17;;;;;;;7.94;83.39;101512.22;5045492;28;20531;-54
2022/01/30 10:14:54;;;;;;;0.30;0.20;;;;;;;8.09;82.19;101514.03;5048169;28;20543;-54
2022/01/30 10:17:35;;;;;;;0.20;0.20;;;;;;;8.17;83.13;101499.03;5046659;28;20522;-54
2022/01/30 10:20:27;;;;;;;0.30;0.20;;;;;;;8.29;82.48;101508.75;5035453;28;20458;-54
2022/01/30 10:22:57;;;;;;;0.20;0.20;;;;;;;8.42;81.56;101517.63;5041085;28;20562;-54
2022/01/30 10:25:32;;;;;;;0.20;0.10;;;;;;;8.38;81.43;101507.91;5042432;28;20475;-54
2022/01/30 10:28:13;;;;;;;0.27;0.20;;;;;;;8.59;82.13;101508.75;5047753;28;20546;-54
2022/01/30 10:30:45;;;;;;;0.30;0.20;;;;;;;8.89;81.72;101523.75;5047747;28;20593;-54
2022/01/30 10:33:18;;;;;;;0.30;0.20;;;;;;;8.64;80.62;101526.44;5043962;28;20447;-54
2022/01/30 10:35:53;;;;;;;0.30;0.20;;;;;;;8.63;79.81;101528.19;5040672;28;20944;-54
2022/01/30 10:38:30;;;;;;;0.30;0.20;;;;;;;9.03;79.10;101534.31;5057544;22;20509;-51
2022/01/30 10:41:18;;;;;;;0.30;0.20;;;;;;;8.92;77.96;101533.47;5047745;28;20487;-52
2022/01/30 10:44:03;;;;;;;0.30;0.20;;;;;;;9.15;75.90;101531.63;5049262;28;20477;-51
2022/01/30 10:46:38;;;;;;;0.20;0.10;;;;;;;9.11;76.78;101521.06;5044884;28;20890;-53
2022/01/30 10:49:13;;;;;;;0.30;0.20;;;;;;;9.06;76.36;101538.75;5047415;28;20558;-53
2022/01/30 10:51:54;;;;;;;0.30;0.20;;;;;;;9.44;74.65;101520.03;5043174;28;20543;-52
2022/01/30 10:54:25;;;;;;;0.30;0.20;;;;;;;9.28;74.05;101535.13;5044252;28;20900;-51
2022/01/30 10:57:07;;;;;;;0.30;0.20;;;;;;;9.44;74.23;101534.19;5047348;28;20487;-53
2022/01/30 10:59:52;;;;;;;0.30;0.20;;;;;;;9.50;72.97;101531.53;5047319;28;20971;-54
2022/01/30 11:02:22;;;;;;;0.30;0.20;;;;;;;9.70;72.73;101531.44;5042513;28;20442;-54
2022/01/30 11:05:00;;;;;;;0.30;0.10;;;;;;;9.77;72.84;101522.56;5040331;28;21024;-53
2022/01/30 11:07:30;;;;;;;0.30;0.20;;;;;;;9.89;72.71;101534.00;5043231;28;20449;-54
2022/01/30 11:10:19;;;;;;;0.30;0.20;;;;;;;9.76;71.49;101517.25;5047049;28;20556;-53
2022/01/30 11:12:56;;;;;;;0.30;0.20;;;;;;;9.69;72.36;101507.53;5047387;28;20537;-54
2022/01/30 11:17:59;;;;;;;0.30;0.20;;;;;;;9.55;73.08;101510.25;5047091;28;20582;-50
2022/01/30 11:20:30;;;;;;;0.30;0.20;;;;;;;9.81;71.62;101510.13;5043540;28;20443;-51
2022/01/30 11:23:02;;;;;;;0.30;0.20;;;;;;;9.62;72.35;101506.72;5040120;28;20474;-51
2022/01/30 11:25:35;;;;;;;0.30;0.20;;;;;;;9.73;72.31;101520.81;5042012;28;20468;-52
2022/01/30 11:28:04;;;;;;;0.30;0.17;;;;;;;9.72;70.26;101518.13;5046828;28;20530;-53
2022/01/30 11:30:50;;;;;;;0.30;0.20;;;;;;;9.55;68.98;101502.31;5046692;28;20532;-53
2022/01/30 11:33:18;;;;;;;0.30;0.20;;;;;;;9.45;70.66;101513.84;5042278;28;20473;-53
2022/01/30 11:35:45;;;;;;;0.27;0.13;;;;;;;9.67;71.34;101514.63;5039943;28;20542;-53
2022/01/30 11:38:12;;;;;;;0.30;0.20;;;;;;;9.71;69.04;101513.72;5044287;28;20578;-53
2022/01/30 11:40:38;;;;;;;0.30;0.20;;;;;;;9.46;67.12;101518.28;5046475;28;20489;-53
2022/01/30 11:43:08;;;;;;;0.30;0.20;;;;;;;9.12;68.26;101520.16;5042325;28;20541;-53
2022/01/30 11:45:35;;;;;;;0.30;0.20;;;;;;;9.15;68.94;101512.19;5037684;28;20478;-54
2022/01/30 11:48:14;;;;;;;0.30;0.20;;;;;;;9.26;68.39;101513.03;5043713;28;20446;-53
2022/01/30 11:50:42;;;;;;;0.30;0.20;;;;;;;9.32;67.90;101512.13;5039611;28;20446;-53
2022/01/30 11:53:10;;;;;;;0.30;0.20;;;;;;;9.15;67.76;101509.53;5047422;28;20454;-51
2022/01/30 11:55:37;;;;;;;0.30;0.20;;;;;;;9.07;68.60;101501.63;5039207;28;20963;-54
2022/01/30 11:58:04;;;;;;;0.30;0.20;;;;;;;9.18;69.25;101496.25;5039776;28;20522;-51
2022/01/30 12:00:48;;;;;;;1.67;0.83;;;;;;;8.99;69.97;101507.81;5026684;28;21041;-52
2022/01/30 12:03:29;;;;;;;0.23;0.20;;;;;;;8.83;70.35;101512.28;5039279;28;20443;-51
2022/01/30 12:06:17;;;;;;;0.30;0.20;;;;;;;8.85;71.89;101514.03;5041401;28;20456;-51
2022/01/30 12:08:51;;;;;;;0.30;0.20;;;;;;;9.01;71.51;101517.53;5040153;28;20506;-51
2022/01/30 12:11:50;;;;;;;0.30;0.20;;;;;;;9.28;70.01;101521.88;5039845;28;20477;-51
2022/01/30 12:14:19;;;;;;;0.30;0.20;;;;;;;9.28;69.41;101518.34;5039045;28;20490;-52
2022/01/30 12:16:56;;;;;;;0.30;0.20;;;;;;;9.28;67.90;101516.56;5047874;28;21093;-53
2022/01/30 12:19:45;;;;;;;0.77;0.77;;;;;;;9.50;67.97;101510.31;5039082;28;20487;-51
2022/01/30 12:22:23;;;;;;;0.30;0.20;;;;;;;9.52;67.24;101501.44;5040825;28;20479;-53
2022/01/30 12:24:52;;;;;;;0.30;0.20;;;;;;;9.69;67.67;101505.78;5025615;28;20538;-53
2022/01/30 12:27:19;;;;;;;0.20;0.10;;;;;;;9.61;67.94;101499.63;5039033;28;20448;-54
2022/01/30 12:29:51;;;;;;;0.30;0.20;;;;;;;9.88;66.95;101500.38;5045136;28;20529;-53